Time;durP1;ratioP1;P1;durP2;ratioP2;P2;SDS_P1;SDS_P2;PMS_P1;PMS_P2;Temp;Humidity;BMP_temperature;BMP_pressure;BME280_temperature;BME280_humidity;BME280_pressure;Samples;Min_cycle;Max_cycle;Signal;HPM_P1;HPM_P2
2021/12/21 14:44:50;;;;;;;9.10;4.82;;;;;;;1.58;67.14;98833.78;5258169;23;20058;-52
2021/12/21 14:47:26;;;;;;;10.18;5.40;;;;;;;1.48;67.66;98829.69;4847396;29;20045;-50
2021/12/21 14:49:56;;;;;;;9.38;4.63;;;;;;;1.45;67.46;98825.47;4843258;29;20546;-50
2021/12/21 14:52:46;;;;;;;12.27;5.28;;;;;;;1.22;68.19;98832.88;4846058;29;20041;-53
2021/12/21 14:55:10;;;;;;;10.00;5.03;;;;;;;1.17;68.48;98831.22;4843356;29;20506;-49
2021/12/21 14:57:38;;;;;;;11.80;5.93;;;;;;;1.13;68.61;98833.88;4844786;29;20034;-53
2021/12/21 15:00:08;;;;;;;10.70;5.47;;;;;;;1.02;68.80;98839.28;4844414;29;20030;-53
2021/12/21 15:05:04;;;;;;;11.52;5.60;;;;;;;1.07;68.20;98837.47;4843939;29;20026;-50
2021/12/21 15:07:29;;;;;;;10.40;5.07;;;;;;;0.84;69.44;98842.22;4831545;29;20390;-53
2021/12/21 15:09:55;;;;;;;11.32;4.85;;;;;;;1.00;68.48;98838.47;4846073;29;20094;-50
2021/12/21 15:12:21;;;;;;;13.95;5.95;;;;;;;0.89;69.03;98840.41;4843913;29;20062;-54
2021/12/21 15:14:47;;;;;;;12.00;6.15;;;;;;;0.77;69.11;98838.06;4844401;29;20038;-53
2021/12/21 15:17:12;;;;;;;12.95;6.43;;;;;;;0.73;69.52;98849.34;4845188;29;20046;-51
2021/12/21 15:19:38;;;;;;;14.07;6.60;;;;;;;0.34;70.87;98850.00;4843147;29;20029;-49
2021/12/21 15:22:03;;;;;;;13.18;6.93;;;;;;;0.31;71.58;98851.78;4844160;29;20402;-51
2021/12/21 15:24:29;;;;;;;15.52;7.10;;;;;;;0.26;71.54;98849.28;4845197;29;20488;-50
2021/12/21 15:26:54;;;;;;;14.48;5.95;;;;;;;0.28;71.39;98847.53;4843325;29;20066;-50
2021/12/21 15:29:19;;;;;;;13.93;7.03;;;;;;;0.33;71.01;98850.03;4844537;29;20026;-48
2021/12/21 15:31:45;;;;;;;13.65;7.07;;;;;;;0.12;72.66;98844.34;4844201;29;20030;-52
2021/12/21 15:34:10;;;;;;;17.70;9.07;;;;;;;0.02;72.81;98840.22;4844199;29;20038;-48
2021/12/21 15:36:36;;;;;;;21.17;9.38;;;;;;;0.09;71.95;98848.72;4854265;29;20034;-50
2021/12/21 15:39:02;;;;;;;27.90;13.93;;;;;;;-0.21;73.21;98837.13;4850964;29;20026;-53
2021/12/21 15:41:28;;;;;;;15.50;8.60;;;;;;;-0.06;73.15;98852.41;4829739;29;20583;-50
2021/12/21 15:43:53;;;;;;;14.43;7.05;;;;;;;-0.23;73.63;98847.50;4844821;29;20042;-52
2021/12/21 15:46:20;;;;;;;14.05;7.13;;;;;;;-0.19;74.13;98846.56;4844228;29;20023;-53
2021/12/21 15:48:45;;;;;;;12.75;6.63;;;;;;;-0.37;74.17;98841.69;4843699;29;20062;-53
2021/12/21 15:51:12;;;;;;;13.95;7.18;;;;;;;-0.57;75.23;98847.97;4843072;29;20499;-51
2021/12/21 15:53:38;;;;;;;12.75;6.82;;;;;;;-0.52;74.93;98833.31;4842018;29;20072;-53
2021/12/21 15:56:04;;;;;;;17.25;7.38;;;;;;;-0.56;75.17;98847.09;4842425;29;20029;-48
2021/12/21 15:58:29;;;;;;;13.60;7.40;;;;;;;-0.58;75.80;98848.00;4842630;29;20044;-52
2021/12/21 16:00:55;;;;;;;14.05;7.93;;;;;;;-0.61;75.97;98848.03;4843159;29;20036;-52
2021/12/21 16:03:20;;;;;;;15.52;7.82;;;;;;;-0.47;74.62;98850.44;4843557;29;20108;-51
2021/12/21 16:05:45;;;;;;;16.17;8.20;;;;;;;-0.47;74.53;98856.44;4843178;29;20040;-54
2021/12/21 16:08:11;;;;;;;14.25;8.02;;;;;;;-0.44;74.47;98851.22;4843441;29;20525;-50
2021/12/21 16:10:36;;;;;;;15.77;8.38;;;;;;;-0.49;74.71;98858.16;4841417;29;20471;-51
2021/12/21 16:13:02;;;;;;;12.27;7.45;;;;;;;-0.40;74.08;98855.47;4843615;29;20038;-51
2021/12/21 16:15:27;;;;;;;15.77;7.75;;;;;;;-0.25;73.90;98857.81;4843738;29;20032;-49
2021/12/21 16:17:52;;;;;;;15.85;7.68;;;;;;;-0.40;74.24;98860.63;4844489;29;20066;-48
2021/12/21 16:20:18;;;;;;;14.70;7.45;;;;;;;-0.50;74.29;98864.19;4846150;29;20052;-49
2021/12/21 16:22:43;;;;;;;14.85;7.68;;;;;;;-0.60;74.90;98871.19;4845740;29;20048;-50
2021/12/21 16:25:10;;;;;;;14.27;7.38;;;;;;;-0.67;74.98;98869.56;4843663;29;20082;-53
2021/12/21 16:27:36;;;;;;;15.55;8.05;;;;;;;-1.01;76.34;98864.81;4844457;29;20090;-52
2021/12/21 16:30:17;;;;;;;18.17;8.68;;;;;;;-1.11;75.65;98870.94;4843875;29;20045;-52
2021/12/21 16:32:42;;;;;;;18.95;9.90;;;;;;;-1.38;76.52;98878.97;4842597;29;20033;-48
2021/12/21 16:35:08;;;;;;;16.75;9.32;;;;;;;-1.51;77.50;98873.94;4842663;29;20030;-51
2021/12/21 16:37:33;;;;;;;18.60;8.85;;;;;;;-1.43;77.89;98876.44;4843092;29;20049;-50
2021/12/21 16:39:58;;;;;;;19.85;9.55;;;;;;;-1.35;77.62;98879.78;4840628;29;20436;-49
2021/12/21 16:42:24;;;;;;;15.05;8.85;;;;;;;-1.42;77.71;98875.56;4843594;29;20058;-53
2021/12/21 16:44:49;;;;;;;19.23;9.88;;;;;;;-1.50;78.48;98867.91;4844620;29;20558;-51
2021/12/21 16:47:15;;;;;;;19.33;9.48;;;;;;;-1.35;77.60;98863.50;4844656;29;20418;-54
2021/12/21 16:49:40;;;;;;;18.52;9.90;;;;;;;-1.57;77.95;98868.00;4844694;29;20030;-54
2021/12/21 16:52:06;;;;;;;19.60;9.98;;;;;;;-1.68;78.54;98870.69;4847023;29;20094;-50
2021/12/21 16:54:31;;;;;;;17.83;8.43;;;;;;;-1.69;78.07;98874.09;4845793;29;20029;-54
2021/12/21 16:56:58;;;;;;;19.92;9.52;;;;;;;-1.79;78.13;98868.19;4846800;29;20037;-53
2021/12/21 16:59:24;;;;;;;21.80;10.40;;;;;;;-2.20;80.49;98866.78;4844566;29;20478;-50
2021/12/21 17:01:49;;;;;;;18.88;9.38;;;;;;;-1.93;80.08;98867.44;4846540;29;20040;-53
2021/12/21 17:04:15;;;;;;;42.92;30.63;;;;;;;-1.64;78.18;98877.50;4846094;29;20038;-54
2021/12/21 17:06:43;;;;;;;29.13;19.17;;;;;;;-1.81;78.80;98863.94;4845306;29;20453;-53
2021/12/21 17:09:09;;;;;;;29.00;17.45;;;;;;;-1.83;78.86;98861.34;4846022;29;20110;-51
2021/12/21 17:11:34;;;;;;;22.25;12.75;;;;;;;-1.79;79.39;98865.63;4846352;29;20022;-47
2021/12/21 17:13:59;;;;;;;20.15;11.30;;;;;;;-1.76;78.76;98862.16;4846778;29;20038;-50
2021/12/21 17:16:25;;;;;;;17.67;9.45;;;;;;;-1.79;78.22;98863.06;4845883;29;20510;-51
2021/12/21 17:18:51;;;;;;;18.92;9.93;;;;;;;-1.69;78.28;98867.25;4847203;29;20034;-52
2021/12/21 17:21:16;;;;;;;21.20;9.98;;;;;;;-1.78;77.61;98864.75;4846143;29;20026;-50
2021/12/21 17:23:42;;;;;;;25.42;11.75;;;;;;;-1.92;78.79;98874.31;4845563;29;20037;-51
2021/12/21 17:26:07;;;;;;;182.48;62.63;;;;;;;-1.79;78.12;98868.19;4846301;29;20037;-50
2021/12/21 17:28:33;;;;;;;52.88;22.65;;;;;;;-1.77;78.15;98869.03;4846109;29;20037;-52
2021/12/21 17:30:58;;;;;;;27.65;15.07;;;;;;;-1.93;79.25;98875.16;4846685;29;20022;-54
2021/12/21 17:33:28;;;;;;;39.00;17.35;;;;;;;-2.05;79.63;98870.97;4845420;29;20041;-50
2021/12/21 17:35:56;;;;;;;36.97;17.40;;;;;;;-2.08;79.43;98867.56;4847631;29;20029;-50
2021/12/21 17:38:22;;;;;;;31.95;14.60;;;;;;;-2.12;79.42;98873.59;4831897;29;20042;-51
2021/12/21 17:40:47;;;;;;;30.02;14.60;;;;;;;-2.10;79.26;98885.53;4843877;29;20032;-52
2021/12/21 17:43:13;;;;;;;27.42;14.68;;;;;;;-2.32;80.40;98882.28;4846651;29;20397;-47
2021/12/21 17:45:39;;;;;;;23.55;13.30;;;;;;;-2.28;80.40;98883.97;4845214;29;20494;-49
2021/12/21 17:48:04;;;;;;;22.52;13.70;;;;;;;-2.25;80.00;98896.78;4843562;29;20045;-50
2021/12/21 17:50:30;;;;;;;22.35;12.18;;;;;;;-2.23;79.70;98901.94;4844526;29;20109;-51
2021/12/21 17:52:55;;;;;;;20.45;10.45;;;;;;;-2.65;81.58;98901.28;4845395;29;20402;-51
2021/12/21 17:55:21;;;;;;;22.70;10.90;;;;;;;-2.59;81.47;98910.69;4845589;29;20042;-51
2021/12/21 17:57:46;;;;;;;18.95;10.07;;;;;;;-2.41;81.02;98902.88;4845510;29;20034;-52
2021/12/21 18:00:12;;;;;;;20.35;10.80;;;;;;;-2.54;81.29;98904.69;4845474;29;20029;-51
2021/12/21 18:02:37;;;;;;;21.40;11.48;;;;;;;-2.61;81.19;98894.44;4847755;29;20482;-54
2021/12/21 18:05:03;;;;;;;18.33;10.65;;;;;;;-2.53;80.75;98905.53;4844279;29;20096;-52
2021/12/21 18:07:29;;;;;;;18.73;10.48;;;;;;;-2.84;80.95;98899.66;4844417;29;20123;-54
2021/12/21 18:09:54;;;;;;;20.50;9.93;;;;;;;-2.98;81.47;98910.84;4845603;29;20026;-54
2021/12/21 18:12:19;;;;;;;18.35;9.00;;;;;;;-2.98;81.84;98907.41;4845126;29;20042;-54
2021/12/21 18:14:45;;;;;;;18.80;9.10;;;;;;;-2.85;80.61;98915.94;4844178;29;20042;-55
2021/12/21 18:17:10;;;;;;;21.52;10.68;;;;;;;-3.02;81.44;98916.00;4847397;29;20048;-49
2021/12/21 18:19:36;;;;;;;35.00;14.15;;;;;;;-2.87;80.78;98914.22;4847709;29;20090;-49
2021/12/21 18:22:04;;;;;;;33.63;16.10;;;;;;;-2.74;81.02;98919.31;4845961;29;20155;-48
2021/12/21 18:24:29;;;;;;;23.58;11.20;;;;;;;-2.54;79.72;98916.66;4848889;29;20050;-53
2021/12/21 18:26:55;;;;;;;25.00;12.45;;;;;;;-2.53;79.55;98918.38;4849124;29;20034;-50
2021/12/21 18:29:20;;;;;;;24.45;12.23;;;;;;;-2.65;80.03;98916.69;4847932;29;20037;-50
2021/12/21 18:31:46;;;;;;;25.42;12.88;;;;;;;-2.61;79.65;98927.84;4846231;29;20108;-51
2021/12/21 18:34:13;;;;;;;25.13;13.93;;;;;;;-3.15;81.80;98917.72;4846907;29;20030;-52
2021/12/21 18:36:38;;;;;;;36.55;20.38;;;;;;;-3.25;82.60;98926.31;4847227;29;20090;-49
2021/12/21 18:39:04;;;;;;;41.80;21.42;;;;;;;-3.28;82.06;98929.72;4847471;29;20046;-52
2021/12/21 18:41:30;;;;;;;71.45;30.85;;;;;;;-3.30;82.13;98925.44;4847106;29;20050;-49
2021/12/21 18:43:59;;;;;;;60.88;25.58;;;;;;;-3.47;83.10;98930.63;4847084;29;20033;-51
2021/12/21 18:46:24;;;;;;;23.83;12.65;;;;;;;-3.63;83.23;98925.47;4847920;29;20030;-50
2021/12/21 18:48:50;;;;;;;193.73;62.55;;;;;;;-3.68;84.37;98932.34;4843069;29;20093;-51
2021/12/21 18:51:17;;;;;;;26.73;14.07;;;;;;;-3.86;84.76;98919.47;4842758;29;20033;-51
2021/12/21 18:53:42;;;;;;;27.38;14.90;;;;;;;-3.62;83.76;98932.31;4841048;29;20105;-52
2021/12/21 18:56:07;;;;;;;25.45;14.35;;;;;;;-3.58;82.64;98928.91;4842715;29;20037;-53
2021/12/21 18:58:33;;;;;;;25.52;12.65;;;;;;;-3.62;82.60;98919.47;4848277;29;20022;-49
2021/12/21 19:01:00;;;;;;;22.45;11.60;;;;;;;-3.43;82.70;98922.91;4848668;29;20034;-48
2021/12/21 19:03:25;;;;;;;30.95;17.65;;;;;;;-3.29;82.02;98930.59;4848771;29;20117;-51
2021/12/21 19:05:51;;;;;;;35.85;19.67;;;;;;;-3.31;82.88;98928.88;4848491;29;20038;-50
2021/12/21 19:08:22;;;;;;;28.42;17.17;;;;;;;-3.42;82.14;98910.94;4849243;29;20482;-48
2021/12/21 19:10:48;;;;;;;31.67;19.98;;;;;;;-3.45;82.57;98916.06;4848470;29;20037;-51
2021/12/21 19:13:13;;;;;;;44.15;24.52;;;;;;;-3.49;83.01;98911.78;4847324;29;20125;-50
2021/12/21 19:15:38;;;;;;;42.80;25.85;;;;;;;-3.55;83.63;98920.34;4848593;29;20420;-47
2021/12/21 19:18:04;;;;;;;40.10;22.60;;;;;;;-3.53;83.20;98916.06;4848549;29;20059;-54
2021/12/21 19:20:29;;;;;;;37.67;20.63;;;;;;;-3.44;82.51;98922.88;4848631;29;20121;-50
2021/12/21 19:22:56;;;;;;;32.28;17.73;;;;;;;-3.50;82.67;98931.47;4847955;29;20037;-50
2021/12/21 19:25:22;;;;;;;35.90;18.27;;;;;;;-3.40;82.14;98930.59;4846198;29;20524;-52
2021/12/21 19:27:47;;;;;;;32.78;18.33;;;;;;;-3.57;83.15;98934.88;4848574;29;20034;-49
2021/12/21 19:30:14;;;;;;;36.83;19.65;;;;;;;-3.05;80.94;98939.09;4847965;29;20026;-50
2021/12/21 19:32:48;;;;;;;33.67;19.65;;;;;;;-3.31;81.78;98937.41;5116558;27;20392;-54
2021/12/21 19:35:14;;;;;;;29.92;17.58;;;;;;;-3.05;83.47;98932.25;5095069;28;20032;-49
2021/12/21 19:37:39;;;;;;;33.35;17.90;;;;;;;-2.88;82.17;98933.06;5095869;28;20024;-51
2021/12/21 19:40:05;;;;;;;37.28;20.02;;;;;;;-3.04;81.92;98938.22;5091126;28;20040;-47
2021/12/21 19:42:31;;;;;;;47.20;24.52;;;;;;;-3.38;82.14;98943.41;5091848;28;20021;-48
2021/12/21 19:44:56;;;;;;;51.63;26.67;;;;;;;-3.84;82.99;98945.97;5091565;28;20051;-47
2021/12/21 19:47:22;;;;;;;39.28;22.98;;;;;;;-3.98;84.08;98945.13;5093007;28;20035;-48
2021/12/21 19:49:47;;;;;;;34.70;21.50;;;;;;;-3.88;82.02;98950.25;5089790;28;20070;-48
2021/12/21 19:52:12;;;;;;;33.80;20.00;;;;;;;-3.54;81.55;98950.28;5091333;28;20031;-49
2021/12/21 19:54:38;;;;;;;34.10;19.75;;;;;;;-3.66;81.11;98945.97;5095902;28;20040;-51
2021/12/21 19:57:04;;;;;;;36.67;20.20;;;;;;;-3.71;81.91;98947.72;5096281;28;20028;-50
2021/12/21 19:59:33;;;;;;;28.88;17.52;;;;;;;-3.91;82.52;98951.97;5096112;28;20032;-50
2021/12/21 20:01:58;;;;;;;29.58;16.75;;;;;;;-3.98;81.32;98952.81;5095843;28;20544;-51
2021/12/21 20:04:24;;;;;;;23.90;13.05;;;;;;;-4.37;83.91;98960.41;5095796;28;20035;-50
2021/12/21 20:06:49;;;;;;;23.48;13.70;;;;;;;-4.12;83.01;98955.34;5095318;28;20027;-48
2021/12/21 20:09:15;;;;;;;31.50;14.50;;;;;;;-3.96;81.32;98956.22;5096351;28;20032;-49
2021/12/21 20:11:45;;;;;;;33.15;15.15;;;;;;;-3.70;80.91;98958.81;5094955;28;20472;-51
2021/12/21 20:14:10;;;;;;;28.80;16.02;;;;;;;-3.69;80.01;98958.81;5091725;28;20025;-50
2021/12/21 20:16:35;;;;;;;37.15;19.60;;;;;;;-3.79;81.34;98958.78;5094053;28;20035;-49
2021/12/21 20:19:01;;;;;;;36.65;19.90;;;;;;;-3.91;80.55;98964.78;5094606;28;20024;-48
2021/12/21 20:21:26;;;;;;;40.50;21.83;;;;;;;-4.13;82.38;98961.28;5097243;28;20032;-48
2021/12/21 20:23:52;;;;;;;36.10;20.67;;;;;;;-4.12;81.75;98958.75;5092497;28;20021;-47
2021/12/21 20:26:17;;;;;;;32.33;18.15;;;;;;;-4.27;82.37;98971.50;5094380;28;20020;-50
2021/12/21 20:28:44;;;;;;;38.13;19.77;;;;;;;-4.05;82.51;98967.31;5094318;28;20515;-48
2021/12/21 20:31:10;;;;;;;37.05;20.27;;;;;;;-3.97;82.50;98970.72;5083734;28;20044;-47
2021/12/21 20:33:35;;;;;;;37.30;20.67;;;;;;;-3.90;81.02;98966.47;5092488;28;20422;-52
2021/12/21 20:36:01;;;;;;;42.47;21.60;;;;;;;-4.18;82.49;98976.66;5095337;28;20028;-50
2021/12/21 20:38:26;;;;;;;167.77;56.72;;;;;;;-4.44;83.88;98978.28;5091866;28;20016;-51
2021/12/21 20:40:51;;;;;;;124.95;45.20;;;;;;;-4.41;82.78;98973.19;5091839;28;20018;-51
2021/12/21 20:43:17;;;;;;;97.03;37.08;;;;;;;-4.58;83.88;98974.00;5083155;28;20069;-50
2021/12/21 20:45:44;;;;;;;45.20;23.27;;;;;;;-4.60;83.95;98970.56;5078257;28;20062;-55
2021/12/21 20:48:10;;;;;;;82.38;32.03;;;;;;;-5.03;84.21;98972.88;5081488;28;20082;-53
2021/12/21 20:50:35;;;;;;;85.47;30.67;;;;;;;-4.89;84.17;98969.53;5065229;28;20507;-51
2021/12/21 20:53:04;;;;;;;76.30;30.05;;;;;;;-4.69;83.89;98978.19;5076644;28;20028;-51
2021/12/21 20:55:30;;;;;;;49.60;21.75;;;;;;;-4.67;82.55;98976.50;5080245;28;20020;-52
2021/12/21 20:57:56;;;;;;;35.35;17.13;;;;;;;-4.64;82.48;98976.50;5075407;28;20021;-52
2021/12/21 21:00:21;;;;;;;355.33;91.95;;;;;;;-4.86;82.59;98969.56;5076712;28;20027;-51
2021/12/21 21:02:46;;;;;;;37.30;16.85;;;;;;;-4.94;83.39;98963.56;5058757;28;20029;-52
2021/12/21 21:05:12;;;;;;;95.60;31.92;;;;;;;-4.95;83.87;98979.78;5060045;28;20041;-49
2021/12/21 21:07:38;;;;;;;103.78;33.22;;;;;;;-4.83;83.00;98980.66;5074250;28;20036;-51
2021/12/21 21:10:04;;;;;;;39.35;18.55;;;;;;;-4.49;82.56;98975.72;5079094;28;20032;-52
2021/12/21 21:12:29;;;;;;;35.40;17.02;;;;;;;-4.63;82.06;98978.22;5075001;28;20097;-49
2021/12/21 21:14:55;;;;;;;28.23;14.15;;;;;;;-4.57;81.71;98983.38;5080067;28;20048;-49
2021/12/21 21:17:20;;;;;;;27.55;15.07;;;;;;;-4.38;80.59;98980.88;5080773;28;20036;-48
2021/12/21 21:19:45;;;;;;;40.25;18.13;;;;;;;-4.65;82.02;98985.03;5079452;28;20032;-50
2021/12/21 21:22:11;;;;;;;127.38;39.45;;;;;;;-4.92;82.96;98970.41;5084405;28;20025;-51
2021/12/21 21:24:40;;;;;;;275.83;72.20;;;;;;;-4.81;82.69;98978.13;5078661;28;20042;-47
2021/12/21 21:27:06;;;;;;;384.08;95.10;;;;;;;-4.70;82.57;98980.75;5079962;28;20027;-50
2021/12/21 21:29:31;;;;;;;267.60;68.13;;;;;;;-4.85;82.12;98986.63;5080248;28;20024;-50
2021/12/21 21:32:00;;;;;;;142.98;42.92;;;;;;;-4.78;81.40;98983.28;5079361;28;20024;-52
2021/12/21 21:34:27;;;;;;;196.50;52.40;;;;;;;-4.79;82.07;98984.09;5079230;28;20033;-52
2021/12/21 21:36:52;;;;;;;108.85;34.38;;;;;;;-5.01;81.43;98976.31;5080719;28;20028;-48
2021/12/21 21:39:18;;;;;;;66.50;24.80;;;;;;;-5.08;82.35;98979.69;5080996;28;20123;-48
2021/12/21 21:41:43;;;;;;;30.92;15.98;;;;;;;-5.28;83.17;98981.25;5080708;28;20020;-50
2021/12/21 21:44:09;;;;;;;88.00;30.90;;;;;;;-5.61;84.79;98977.59;5079829;28;20039;-48
2021/12/21 21:46:34;;;;;;;99.18;33.22;;;;;;;-5.78;84.50;98979.13;5080556;28;20020;-49
2021/12/21 21:48:59;;;;;;;145.85;43.35;;;;;;;-5.67;84.38;98977.56;5062490;28;20039;-51
2021/12/21 21:51:25;;;;;;;99.15;31.83;;;;;;;-5.47;83.96;98989.63;5080154;28;20035;-49
2021/12/21 21:53:50;;;;;;;70.07;25.70;;;;;;;-5.57;84.49;98989.56;5079846;28;20033;-51
2021/12/21 21:56:17;;;;;;;34.13;14.90;;;;;;;-5.27;83.85;99005.97;5079858;28;20028;-48
2021/12/21 21:58:46;;;;;;;23.98;12.77;;;;;;;-5.10;82.66;99006.94;5080998;28;20028;-49
2021/12/21 22:01:12;;;;;;;32.33;13.82;;;;;;;-5.02;81.93;99004.47;5070470;28;20492;-50
2021/12/21 22:03:37;;;;;;;24.00;12.73;;;;;;;-4.95;81.60;99010.47;5075496;28;20058;-48
2021/12/21 22:06:03;;;;;;;26.60;13.25;;;;;;;-5.03;82.33;99003.59;5078476;28;20097;-49
2021/12/21 22:08:28;;;;;;;25.10;13.48;;;;;;;-5.11;81.88;99007.81;5079758;28;20029;-51
2021/12/21 22:10:54;;;;;;;25.02;13.50;;;;;;;-5.04;80.59;99001.88;5080931;28;20031;-51
2021/12/21 22:13:22;;;;;;;28.27;13.68;;;;;;;-4.91;80.38;99012.19;5080046;28;20037;-49
2021/12/21 22:15:47;;;;;;;29.23;14.95;;;;;;;-4.94;80.96;99009.63;5070465;28;20024;-50
2021/12/21 22:18:13;;;;;;;32.25;15.95;;;;;;;-4.95;80.69;99030.94;5065777;28;20035;-50
2021/12/21 22:20:38;;;;;;;35.13;18.05;;;;;;;-4.86;80.10;99031.00;5079841;28;20035;-51
2021/12/21 22:23:04;;;;;;;36.10;18.25;;;;;;;-4.95;80.83;99041.19;5079299;28;20016;-48
2021/12/21 22:25:29;;;;;;;75.80;35.67;;;;;;;-5.39;80.98;99034.88;5077858;28;20387;-47
2021/12/21 22:27:55;;;;;;;76.80;36.67;;;;;;;-5.27;80.82;99039.22;5080183;28;20039;-50
2021/12/21 22:30:20;;;;;;;145.02;61.40;;;;;;;-5.37;80.24;99045.09;5079356;28;20081;-48
2021/12/21 22:32:45;;;;;;;147.52;61.63;;;;;;;-5.74;82.07;99037.97;5076083;28;20025;-51
